sensor_id;sensor_type;location;lat;lon;timestamp;P1;durP1;ratioP1;P2;durP2;ratioP2
15159;SDS011;7680;48.800;9.680;2023-12-20T00:04:41;2.83;;;2.63;;
15159;SDS011;7680;48.800;9.680;2023-12-20T00:09:44;3.13;;;2.93;;
15159;SDS011;7680;48.800;9.680;2023-12-20T00:14:48;2.80;;;2.60;;
15159;SDS011;7680;48.800;9.680;2023-12-20T00:19:52;3.00;;;2.80;;
15159;SDS011;7680;48.800;9.680;2023-12-20T00:24:55;2.77;;;2.57;;
15159;SDS011;7680;48.800;9.680;2023-12-20T00:29:59;3.13;;;2.90;;
15159;SDS011;7680;48.800;9.680;2023-12-20T00:35:03;2.50;;;2.40;;
15159;SDS011;7680;48.800;9.680;2023-12-20T00:40:07;3.97;;;2.90;;
15159;SDS011;7680;48.800;9.680;2023-12-20T00:45:13;3.20;;;2.90;;
15159;SDS011;7680;48.800;9.680;2023-12-20T00:50:16;3.10;;;2.90;;
15159;SDS011;7680;48.800;9.680;2023-12-20T00:55:19;3.10;;;2.90;;
15159;SDS011;7680;48.800;9.680;2023-12-20T01:00:24;2.50;;;2.40;;
15159;SDS011;7680;48.800;9.680;2023-12-20T01:05:27;3.33;;;3.13;;
15159;SDS011;7680;48.800;9.680;2023-12-20T01:10:30;3.10;;;2.90;;
15159;SDS011;7680;48.800;9.680;2023-12-20T01:15:34;2.90;;;2.70;;
15159;SDS011;7680;48.800;9.680;2023-12-20T01:20:38;3.50;;;3.20;;
15159;SDS011;7680;48.800;9.680;2023-12-20T01:25:41;3.07;;;2.87;;
15159;SDS011;7680;48.800;9.680;2023-12-20T01:30:45;4.03;;;3.73;;
15159;SDS011;7680;48.800;9.680;2023-12-20T01:35:49;3.43;;;3.23;;
15159;SDS011;7680;48.800;9.680;2023-12-20T01:40:52;3.33;;;3.03;;
15159;SDS011;7680;48.800;9.680;2023-12-20T01:45:56;3.47;;;2.97;;
15159;SDS011;7680;48.800;9.680;2023-12-20T01:51:00;3.30;;;3.07;;
15159;SDS011;7680;48.800;9.680;2023-12-20T01:56:05;3.70;;;3.40;;
15159;SDS011;7680;48.800;9.680;2023-12-20T02:01:12;3.80;;;3.50;;
15159;SDS011;7680;48.800;9.680;2023-12-20T02:06:15;4.00;;;3.80;;
15159;SDS011;7680;48.800;9.680;2023-12-20T02:11:20;3.90;;;3.60;;
15159;SDS011;7680;48.800;9.680;2023-12-20T02:16:25;3.83;;;3.53;;
15159;SDS011;7680;48.800;9.680;2023-12-20T02:21:33;3.80;;;2.80;;
15159;SDS011;7680;48.800;9.680;2023-12-20T02:26:36;3.30;;;3.10;;
15159;SDS011;7680;48.800;9.680;2023-12-20T02:31:39;2.90;;;2.70;;
15159;SDS011;7680;48.800;9.680;2023-12-20T02:36:44;3.10;;;2.90;;
15159;SDS011;7680;48.800;9.680;2023-12-20T02:41:47;3.00;;;2.80;;
15159;SDS011;7680;48.800;9.680;2023-12-20T02:46:51;3.20;;;2.97;;
15159;SDS011;7680;48.800;9.680;2023-12-20T02:51:55;3.10;;;2.90;;
15159;SDS011;7680;48.800;9.680;2023-12-20T02:56:58;3.17;;;2.97;;
15159;SDS011;7680;48.800;9.680;2023-12-20T03:02:05;3.20;;;3.00;;
15159;SDS011;7680;48.800;9.680;2023-12-20T03:07:09;3.00;;;2.80;;
15159;SDS011;7680;48.800;9.680;2023-12-20T03:12:13;3.40;;;3.10;;
15159;SDS011;7680;48.800;9.680;2023-12-20T03:17:16;2.60;;;2.50;;
15159;SDS011;7680;48.800;9.680;2023-12-20T03:22:21;3.50;;;3.27;;
15159;SDS011;7680;48.800;9.680;2023-12-20T03:27:24;4.00;;;3.70;;
15159;SDS011;7680;48.800;9.680;2023-12-20T03:32:27;3.37;;;3.10;;
15159;SDS011;7680;48.800;9.680;2023-12-20T03:37:32;3.47;;;3.20;;
15159;SDS011;7680;48.800;9.680;2023-12-20T03:42:35;4.13;;;3.93;;
15159;SDS011;7680;48.800;9.680;2023-12-20T03:47:38;4.10;;;3.57;;
15159;SDS011;7680;48.800;9.680;2023-12-20T03:52:43;4.47;;;4.07;;
15159;SDS011;7680;48.800;9.680;2023-12-20T03:57:46;3.53;;;3.33;;
15159;SDS011;7680;48.800;9.680;2023-12-20T04:02:49;3.07;;;2.87;;
15159;SDS011;7680;48.800;9.680;2023-12-20T04:07:53;3.20;;;3.00;;
15159;SDS011;7680;48.800;9.680;2023-12-20T04:12:57;3.20;;;3.00;;
15159;SDS011;7680;48.800;9.680;2023-12-20T04:18:00;3.00;;;2.80;;
15159;SDS011;7680;48.800;9.680;2023-12-20T04:23:05;2.50;;;2.40;;
15159;SDS011;7680;48.800;9.680;2023-12-20T04:28:08;3.33;;;3.03;;
15159;SDS011;7680;48.800;9.680;2023-12-20T04:33:11;2.13;;;2.03;;
15159;SDS011;7680;48.800;9.680;2023-12-20T04:38:15;2.10;;;2.00;;
15159;SDS011;7680;48.800;9.680;2023-12-20T04:43:18;2.10;;;2.00;;
15159;SDS011;7680;48.800;9.680;2023-12-20T04:48:22;2.30;;;2.10;;
15159;SDS011;7680;48.800;9.680;2023-12-20T04:53:26;2.30;;;2.10;;
15159;SDS011;7680;48.800;9.680;2023-12-20T04:58:29;2.47;;;2.27;;
15159;SDS011;7680;48.800;9.680;2023-12-20T05:03:32;1.97;;;1.87;;
15159;SDS011;7680;48.800;9.680;2023-12-20T05:08:37;2.20;;;2.10;;
15159;SDS011;7680;48.800;9.680;2023-12-20T05:13:40;2.23;;;1.93;;
15159;SDS011;7680;48.800;9.680;2023-12-20T05:18:50;2.13;;;2.03;;
15159;SDS011;7680;48.800;9.680;2023-12-20T05:23:55;2.60;;;2.40;;
15159;SDS011;7680;48.800;9.680;2023-12-20T05:28:58;2.50;;;2.40;;
15159;SDS011;7680;48.800;9.680;2023-12-20T05:34:01;3.10;;;2.90;;
15159;SDS011;7680;48.800;9.680;2023-12-20T05:39:06;3.20;;;3.00;;
15159;SDS011;7680;48.800;9.680;2023-12-20T05:44:10;3.33;;;3.13;;
15159;SDS011;7680;48.800;9.680;2023-12-20T05:49:13;3.90;;;3.70;;
15159;SDS011;7680;48.800;9.680;2023-12-20T05:54:17;3.60;;;3.30;;
15159;SDS011;7680;48.800;9.680;2023-12-20T05:59:20;3.33;;;3.13;;
15159;SDS011;7680;48.800;9.680;2023-12-20T06:04:24;3.30;;;3.10;;
15159;SDS011;7680;48.800;9.680;2023-12-20T06:09:28;2.90;;;2.77;;
15159;SDS011;7680;48.800;9.680;2023-12-20T06:14:32;2.50;;;2.40;;
15159;SDS011;7680;48.800;9.680;2023-12-20T06:19:35;2.20;;;2.10;;
15159;SDS011;7680;48.800;9.680;2023-12-20T06:24:40;2.33;;;2.20;;
15159;SDS011;7680;48.800;9.680;2023-12-20T06:29:43;2.30;;;2.20;;
15159;SDS011;7680;48.800;9.680;2023-12-20T06:34:46;2.70;;;2.50;;
15159;SDS011;7680;48.800;9.680;2023-12-20T06:39:51;3.10;;;2.87;;
15159;SDS011;7680;48.800;9.680;2023-12-20T06:44:54;3.13;;;2.93;;
15159;SDS011;7680;48.800;9.680;2023-12-20T06:49:57;2.90;;;2.70;;
15159;SDS011;7680;48.800;9.680;2023-12-20T06:55:02;3.60;;;3.30;;
15159;SDS011;7680;48.800;9.680;2023-12-20T07:00:06;3.50;;;2.97;;
15159;SDS011;7680;48.800;9.680;2023-12-20T07:05:10;4.33;;;3.40;;
15159;SDS011;7680;48.800;9.680;2023-12-20T07:10:15;4.67;;;3.10;;
15159;SDS011;7680;48.800;9.680;2023-12-20T07:15:18;4.77;;;3.63;;
15159;SDS011;7680;48.800;9.680;2023-12-20T07:20:21;3.93;;;3.37;;
15159;SDS011;7680;48.800;9.680;2023-12-20T07:25:26;3.60;;;3.30;;
15159;SDS011;7680;48.800;9.680;2023-12-20T07:30:30;4.30;;;3.53;;
15159;SDS011;7680;48.800;9.680;2023-12-20T07:35:33;3.57;;;3.27;;
15159;SDS011;7680;48.800;9.680;2023-12-20T07:40:37;4.17;;;3.07;;
15159;SDS011;7680;48.800;9.680;2023-12-20T07:45:41;5.07;;;3.87;;
15159;SDS011;7680;48.800;9.680;2023-12-20T07:50:44;4.30;;;3.87;;
15159;SDS011;7680;48.800;9.680;2023-12-20T07:55:49;5.00;;;4.70;;
15159;SDS011;7680;48.800;9.680;2023-12-20T08:00:53;5.70;;;5.30;;
15159;SDS011;7680;48.800;9.680;2023-12-20T08:05:57;6.57;;;6.07;;
15159;SDS011;7680;48.800;9.680;2023-12-20T08:11:02;7.07;;;6.47;;
15159;SDS011;7680;48.800;9.680;2023-12-20T08:16:06;7.67;;;7.03;;
15159;SDS011;7680;48.800;9.680;2023-12-20T08:21:09;7.60;;;7.00;;
15159;SDS011;7680;48.800;9.680;2023-12-20T08:26:14;7.67;;;6.97;;
15159;SDS011;7680;48.800;9.680;2023-12-20T08:31:22;9.40;;;8.50;;
15159;SDS011;7680;48.800;9.680;2023-12-20T08:36:25;8.17;;;7.47;;
15159;SDS011;7680;48.800;9.680;2023-12-20T08:41:29;8.73;;;7.93;;
15159;SDS011;7680;48.800;9.680;2023-12-20T08:46:33;8.27;;;7.47;;
15159;SDS011;7680;48.800;9.680;2023-12-20T08:51:36;9.27;;;8.37;;
15159;SDS011;7680;48.800;9.680;2023-12-20T08:56:43;8.80;;;7.93;;
15159;SDS011;7680;48.800;9.680;2023-12-20T09:01:47;8.73;;;7.93;;
15159;SDS011;7680;48.800;9.680;2023-12-20T09:06:55;9.07;;;8.20;;
15159;SDS011;7680;48.800;9.680;2023-12-20T09:12:00;9.27;;;8.40;;
15159;SDS011;7680;48.800;9.680;2023-12-20T09:17:03;7.70;;;7.00;;
15159;SDS011;7680;48.800;9.680;2023-12-20T09:22:07;10.03;;;8.30;;
15159;SDS011;7680;48.800;9.680;2023-12-20T09:27:12;8.83;;;8.03;;
15159;SDS011;7680;48.800;9.680;2023-12-20T09:32:15;8.87;;;8.03;;
15159;SDS011;7680;48.800;9.680;2023-12-20T09:37:18;8.00;;;7.20;;
15159;SDS011;7680;48.800;9.680;2023-12-20T09:42:24;7.60;;;6.90;;
15159;SDS011;7680;48.800;9.680;2023-12-20T09:47:34;8.43;;;6.67;;
15159;SDS011;7680;48.800;9.680;2023-12-20T09:52:38;6.60;;;6.00;;
15159;SDS011;7680;48.800;9.680;2023-12-20T09:57:43;6.57;;;5.70;;
15159;SDS011;7680;48.800;9.680;2023-12-20T10:02:49;5.83;;;5.23;;
15159;SDS011;7680;48.800;9.680;2023-12-20T10:07:59;6.23;;;5.17;;
15159;SDS011;7680;48.800;9.680;2023-12-20T10:13:06;5.00;;;4.50;;
15159;SDS011;7680;48.800;9.680;2023-12-20T10:18:13;5.00;;;4.50;;
15159;SDS011;7680;48.800;9.680;2023-12-20T10:23:17;5.27;;;4.07;;
15159;SDS011;7680;48.800;9.680;2023-12-20T10:28:22;5.83;;;4.43;;
15159;SDS011;7680;48.800;9.680;2023-12-20T10:33:30;5.00;;;4.03;;
15159;SDS011;7680;48.800;9.680;2023-12-20T10:38:35;3.93;;;3.60;;
15159;SDS011;7680;48.800;9.680;2023-12-20T10:43:43;4.77;;;3.47;;
15159;SDS011;7680;48.800;9.680;2023-12-20T10:48:48;5.87;;;3.70;;
15159;SDS011;7680;48.800;9.680;2023-12-20T10:53:56;4.53;;;3.47;;
15159;SDS011;7680;48.800;9.680;2023-12-20T10:59:01;4.73;;;3.27;;
15159;SDS011;7680;48.800;9.680;2023-12-20T11:04:06;4.43;;;3.10;;
15159;SDS011;7680;48.800;9.680;2023-12-20T11:09:19;5.23;;;3.00;;
15159;SDS011;7680;48.800;9.680;2023-12-20T11:14:32;5.63;;;2.80;;
15159;SDS011;7680;48.800;9.680;2023-12-20T11:25:13;3.97;;;3.00;;
15159;SDS011;7680;48.800;9.680;2023-12-20T11:30:17;4.43;;;2.47;;
15159;SDS011;7680;48.800;9.680;2023-12-20T11:35:22;5.50;;;2.80;;
15159;SDS011;7680;48.800;9.680;2023-12-20T11:40:26;6.27;;;2.47;;
15159;SDS011;7680;48.800;9.680;2023-12-20T11:45:31;4.40;;;2.63;;
15159;SDS011;7680;48.800;9.680;2023-12-20T11:50:35;4.20;;;2.70;;
15159;SDS011;7680;48.800;9.680;2023-12-20T11:55:39;5.73;;;2.57;;
15159;SDS011;7680;48.800;9.680;2023-12-20T12:00:44;3.40;;;2.77;;
15159;SDS011;7680;48.800;9.680;2023-12-20T12:05:47;5.53;;;3.00;;
15159;SDS011;7680;48.800;9.680;2023-12-20T12:10:50;5.17;;;2.53;;
15159;SDS011;7680;48.800;9.680;2023-12-20T12:15:55;6.60;;;2.83;;
15159;SDS011;7680;48.800;9.680;2023-12-20T12:21:01;6.97;;;2.63;;
15159;SDS011;7680;48.800;9.680;2023-12-20T12:26:15;4.93;;;3.30;;
15159;SDS011;7680;48.800;9.680;2023-12-20T12:31:20;4.70;;;3.17;;
15159;SDS011;7680;48.800;9.680;2023-12-20T12:36:24;4.47;;;3.30;;
15159;SDS011;7680;48.800;9.680;2023-12-20T12:41:28;7.43;;;3.37;;
15159;SDS011;7680;48.800;9.680;2023-12-20T12:46:33;8.43;;;3.50;;
15159;SDS011;7680;48.800;9.680;2023-12-20T12:51:36;4.60;;;2.77;;
15159;SDS011;7680;48.800;9.680;2023-12-20T12:56:39;6.40;;;3.10;;
15159;SDS011;7680;48.800;9.680;2023-12-20T13:01:44;6.00;;;3.23;;
15159;SDS011;7680;48.800;9.680;2023-12-20T13:06:47;5.47;;;3.30;;
15159;SDS011;7680;48.800;9.680;2023-12-20T13:11:50;5.33;;;2.97;;
15159;SDS011;7680;48.800;9.680;2023-12-20T13:16:55;4.20;;;2.90;;
15159;SDS011;7680;48.800;9.680;2023-12-20T13:22:00;4.80;;;3.10;;
15159;SDS011;7680;48.800;9.680;2023-12-20T13:27:04;6.47;;;2.83;;
15159;SDS011;7680;48.800;9.680;2023-12-20T13:32:09;5.00;;;3.50;;
15159;SDS011;7680;48.800;9.680;2023-12-20T13:37:12;5.30;;;3.27;;
15159;SDS011;7680;48.800;9.680;2023-12-20T13:42:15;5.33;;;2.80;;
15159;SDS011;7680;48.800;9.680;2023-12-20T13:47:20;6.17;;;3.10;;
15159;SDS011;7680;48.800;9.680;2023-12-20T13:52:25;3.80;;;2.60;;
15159;SDS011;7680;48.800;9.680;2023-12-20T13:57:28;6.30;;;3.30;;
15159;SDS011;7680;48.800;9.680;2023-12-20T14:02:53;5.17;;;3.07;;
15159;SDS011;7680;48.800;9.680;2023-12-20T14:07:56;3.60;;;3.23;;
15159;SDS011;7680;48.800;9.680;2023-12-20T14:13:00;4.57;;;3.00;;
15159;SDS011;7680;48.800;9.680;2023-12-20T14:18:05;3.73;;;3.13;;
15159;SDS011;7680;48.800;9.680;2023-12-20T14:23:10;5.80;;;3.23;;
15159;SDS011;7680;48.800;9.680;2023-12-20T14:28:13;5.80;;;3.20;;
15159;SDS011;7680;48.800;9.680;2023-12-20T14:33:17;5.37;;;3.40;;
15159;SDS011;7680;48.800;9.680;2023-12-20T14:38:22;4.57;;;3.03;;
15159;SDS011;7680;48.800;9.680;2023-12-20T14:43:26;5.67;;;2.97;;
15159;SDS011;7680;48.800;9.680;2023-12-20T14:48:31;5.40;;;2.53;;
15159;SDS011;7680;48.800;9.680;2023-12-20T14:53:34;6.10;;;2.63;;
15159;SDS011;7680;48.800;9.680;2023-12-20T14:58:38;5.57;;;3.23;;
15159;SDS011;7680;48.800;9.680;2023-12-20T15:03:43;5.13;;;2.90;;
15159;SDS011;7680;48.800;9.680;2023-12-20T15:08:46;3.10;;;2.80;;
15159;SDS011;7680;48.800;9.680;2023-12-20T15:13:49;4.57;;;3.17;;
15159;SDS011;7680;48.800;9.680;2023-12-20T15:18:58;7.63;;;3.60;;
15159;SDS011;7680;48.800;9.680;2023-12-20T15:24:01;5.03;;;2.97;;
15159;SDS011;7680;48.800;9.680;2023-12-20T15:29:14;5.57;;;3.57;;
15159;SDS011;7680;48.800;9.680;2023-12-20T15:34:18;6.70;;;3.40;;
15159;SDS011;7680;48.800;9.680;2023-12-20T15:39:22;4.73;;;2.70;;
15159;SDS011;7680;48.800;9.680;2023-12-20T15:44:25;3.93;;;2.87;;
15159;SDS011;7680;48.800;9.680;2023-12-20T15:49:29;4.17;;;2.90;;
15159;SDS011;7680;48.800;9.680;2023-12-20T15:54:33;5.23;;;2.63;;
15159;SDS011;7680;48.800;9.680;2023-12-20T15:59:39;5.90;;;4.00;;
15159;SDS011;7680;48.800;9.680;2023-12-20T16:04:44;4.23;;;3.60;;
15159;SDS011;7680;48.800;9.680;2023-12-20T16:09:48;4.00;;;3.50;;
15159;SDS011;7680;48.800;9.680;2023-12-20T16:14:51;6.53;;;4.33;;
15159;SDS011;7680;48.800;9.680;2023-12-20T16:19:55;5.07;;;4.03;;
15159;SDS011;7680;48.800;9.680;2023-12-20T16:24:58;6.97;;;3.80;;
15159;SDS011;7680;48.800;9.680;2023-12-20T16:30:02;10.23;;;3.97;;
15159;SDS011;7680;48.800;9.680;2023-12-20T16:35:07;6.63;;;3.97;;
15159;SDS011;7680;48.800;9.680;2023-12-20T16:40:11;5.30;;;3.50;;
15159;SDS011;7680;48.800;9.680;2023-12-20T16:45:14;3.37;;;2.80;;
15159;SDS011;7680;48.800;9.680;2023-12-20T16:50:19;7.00;;;3.80;;
15159;SDS011;7680;48.800;9.680;2023-12-20T16:55:22;5.13;;;2.87;;
15159;SDS011;7680;48.800;9.680;2023-12-20T17:00:25;3.30;;;2.80;;
15159;SDS011;7680;48.800;9.680;2023-12-20T17:05:30;3.53;;;3.07;;
15159;SDS011;7680;48.800;9.680;2023-12-20T17:10:33;4.23;;;3.50;;
15159;SDS011;7680;48.800;9.680;2023-12-20T17:15:36;4.63;;;3.10;;
15159;SDS011;7680;48.800;9.680;2023-12-20T17:20:43;4.67;;;3.23;;
15159;SDS011;7680;48.800;9.680;2023-12-20T17:25:46;4.13;;;3.00;;
15159;SDS011;7680;48.800;9.680;2023-12-20T17:30:49;6.27;;;3.90;;
15159;SDS011;7680;48.800;9.680;2023-12-20T17:35:54;4.90;;;4.53;;
15159;SDS011;7680;48.800;9.680;2023-12-20T17:40:57;4.50;;;4.00;;
15159;SDS011;7680;48.800;9.680;2023-12-20T17:46:00;6.60;;;5.67;;
15159;SDS011;7680;48.800;9.680;2023-12-20T17:51:05;4.97;;;4.47;;
15159;SDS011;7680;48.800;9.680;2023-12-20T17:56:08;4.43;;;4.00;;
15159;SDS011;7680;48.800;9.680;2023-12-20T18:01:11;4.07;;;3.17;;
15159;SDS011;7680;48.800;9.680;2023-12-20T18:06:17;4.23;;;3.83;;
15159;SDS011;7680;48.800;9.680;2023-12-20T18:11:21;5.20;;;4.13;;
15159;SDS011;7680;48.800;9.680;2023-12-20T18:16:24;4.37;;;3.80;;
15159;SDS011;7680;48.800;9.680;2023-12-20T18:21:29;5.30;;;3.70;;
15159;SDS011;7680;48.800;9.680;2023-12-20T18:26:32;5.37;;;3.60;;
15159;SDS011;7680;48.800;9.680;2023-12-20T18:31:37;5.67;;;3.93;;
15159;SDS011;7680;48.800;9.680;2023-12-20T18:36:41;15.43;;;13.67;;
15159;SDS011;7680;48.800;9.680;2023-12-20T18:41:45;6.03;;;4.10;;
15159;SDS011;7680;48.800;9.680;2023-12-20T18:46:49;6.10;;;4.87;;
15159;SDS011;7680;48.800;9.680;2023-12-20T18:51:54;6.07;;;5.30;;
15159;SDS011;7680;48.800;9.680;2023-12-20T18:56:57;4.80;;;4.13;;
15159;SDS011;7680;48.800;9.680;2023-12-20T19:02:01;4.07;;;3.50;;
15159;SDS011;7680;48.800;9.680;2023-12-20T19:07:05;5.00;;;3.83;;
15159;SDS011;7680;48.800;9.680;2023-12-20T19:12:08;4.23;;;3.83;;
15159;SDS011;7680;48.800;9.680;2023-12-20T19:17:11;5.23;;;3.70;;
15159;SDS011;7680;48.800;9.680;2023-12-20T19:22:16;5.03;;;3.93;;
15159;SDS011;7680;48.800;9.680;2023-12-20T19:27:19;5.47;;;3.90;;
15159;SDS011;7680;48.800;9.680;2023-12-20T19:32:22;4.40;;;4.00;;
15159;SDS011;7680;48.800;9.680;2023-12-20T19:37:28;6.83;;;5.40;;
15159;SDS011;7680;48.800;9.680;2023-12-20T19:42:32;8.47;;;5.30;;
15159;SDS011;7680;48.800;9.680;2023-12-20T19:47:38;5.77;;;3.90;;
15159;SDS011;7680;48.800;9.680;2023-12-20T19:52:43;4.60;;;3.77;;
15159;SDS011;7680;48.800;9.680;2023-12-20T19:57:46;6.10;;;3.20;;
15159;SDS011;7680;48.800;9.680;2023-12-20T20:02:53;5.13;;;3.47;;
15159;SDS011;7680;48.800;9.680;2023-12-20T20:07:58;4.33;;;3.20;;
15159;SDS011;7680;48.800;9.680;2023-12-20T20:13:01;5.70;;;3.70;;
15159;SDS011;7680;48.800;9.680;2023-12-20T20:18:04;3.63;;;3.27;;
15159;SDS011;7680;48.800;9.680;2023-12-20T20:23:10;6.60;;;4.17;;
15159;SDS011;7680;48.800;9.680;2023-12-20T20:28:13;3.80;;;3.20;;
15159;SDS011;7680;48.800;9.680;2023-12-20T20:33:17;3.90;;;2.80;;
15159;SDS011;7680;48.800;9.680;2023-12-20T20:38:22;5.23;;;4.20;;
15159;SDS011;7680;48.800;9.680;2023-12-20T20:43:26;4.83;;;3.93;;
15159;SDS011;7680;48.800;9.680;2023-12-20T20:48:29;4.30;;;3.40;;
15159;SDS011;7680;48.800;9.680;2023-12-20T20:53:46;3.33;;;3.00;;
15159;SDS011;7680;48.800;9.680;2023-12-20T20:58:54;3.77;;;2.90;;
15159;SDS011;7680;48.800;9.680;2023-12-20T21:03:57;4.33;;;3.47;;
15159;SDS011;7680;48.800;9.680;2023-12-20T21:09:02;3.93;;;2.60;;
15159;SDS011;7680;48.800;9.680;2023-12-20T21:14:06;4.60;;;2.70;;
15159;SDS011;7680;48.800;9.680;2023-12-20T21:19:09;5.57;;;3.43;;
15159;SDS011;7680;48.800;9.680;2023-12-20T21:24:15;5.80;;;5.03;;
15159;SDS011;7680;48.800;9.680;2023-12-20T21:29:18;4.13;;;3.60;;
15159;SDS011;7680;48.800;9.680;2023-12-20T21:34:21;6.00;;;3.87;;
15159;SDS011;7680;48.800;9.680;2023-12-20T21:39:26;4.07;;;2.80;;
15159;SDS011;7680;48.800;9.680;2023-12-20T21:44:30;4.20;;;3.80;;
15159;SDS011;7680;48.800;9.680;2023-12-20T21:49:34;4.70;;;3.30;;
15159;SDS011;7680;48.800;9.680;2023-12-20T21:54:38;3.13;;;2.87;;
15159;SDS011;7680;48.800;9.680;2023-12-20T21:59:41;6.10;;;3.50;;
15159;SDS011;7680;48.800;9.680;2023-12-20T22:04:44;6.40;;;3.80;;
15159;SDS011;7680;48.800;9.680;2023-12-20T22:09:49;4.87;;;4.00;;
15159;SDS011;7680;48.800;9.680;2023-12-20T22:14:52;6.70;;;4.47;;
15159;SDS011;7680;48.800;9.680;2023-12-20T22:19:55;4.00;;;2.80;;
15159;SDS011;7680;48.800;9.680;2023-12-20T22:25:00;2.87;;;2.67;;
15159;SDS011;7680;48.800;9.680;2023-12-20T22:30:04;7.50;;;2.93;;
15159;SDS011;7680;48.800;9.680;2023-12-20T22:35:10;3.77;;;2.80;;
15159;SDS011;7680;48.800;9.680;2023-12-20T22:40:16;2.70;;;2.50;;
15159;SDS011;7680;48.800;9.680;2023-12-20T22:45:19;2.93;;;2.63;;
15159;SDS011;7680;48.800;9.680;2023-12-20T22:50:22;2.87;;;2.67;;
15159;SDS011;7680;48.800;9.680;2023-12-20T22:55:27;2.47;;;2.27;;
15159;SDS011;7680;48.800;9.680;2023-12-20T23:00:30;2.63;;;2.10;;
15159;SDS011;7680;48.800;9.680;2023-12-20T23:05:33;3.53;;;2.33;;
15159;SDS011;7680;48.800;9.680;2023-12-20T23:10:38;3.47;;;2.47;;
15159;SDS011;7680;48.800;9.680;2023-12-20T23:15:42;2.60;;;2.40;;
15159;SDS011;7680;48.800;9.680;2023-12-20T23:20:45;2.67;;;2.47;;
15159;SDS011;7680;48.800;9.680;2023-12-20T23:25:50;2.67;;;2.47;;
15159;SDS011;7680;48.800;9.680;2023-12-20T23:30:53;3.40;;;2.10;;
15159;SDS011;7680;48.800;9.680;2023-12-20T23:35:56;2.37;;;2.17;;
15159;SDS011;7680;48.800;9.680;2023-12-20T23:41:01;2.30;;;2.10;;
15159;SDS011;7680;48.800;9.680;2023-12-20T23:46:04;2.40;;;2.20;;
15159;SDS011;7680;48.800;9.680;2023-12-20T23:51:08;2.20;;;2.00;;
15159;SDS011;7680;48.800;9.680;2023-12-20T23:56:12;3.17;;;2.00;;
